PTD01 EGPK-EGPF
Flight info
| Callsign | PTD01 |
|---|---|
| Flight time | 1h 22m |
| Altitude | 4000 |
| Route | OPR |
| Aircraft | P28A/L-SDGRY/S |
Departure
| Time | 2026-04-29 10:11 |
|---|---|
| Airport | Glasgow Prestwick Airport (EGPK) |
Arrival
| Time | 2026-04-29 11:34 |
|---|---|
| Airport | Glasgow Airport (EGPF) |
| Time | Latitude | Longitude | Altitude | Speed | Heading |
|---|---|---|---|---|---|
| 2026-04-29 09:51 | 55.50126 | -4.58238 | 45 ft | 0 kts | 216° |
| 2026-04-29 09:58 | 55.50114 | -4.58221 | 45 ft | 7 kts | 96° |
| 2026-04-29 09:58 | 55.50094 | -4.58157 | 45 ft | 6 kts | 108° |
| 2026-04-29 09:59 | 55.50030 | -4.58160 | 44 ft | 16 kts | 203° |
| 2026-04-29 09:59 | 55.49919 | -4.58245 | 42 ft | 18 kts | 202° |
| 2026-04-29 09:59 | 55.49798 | -4.58340 | 40 ft | 19 kts | 204° |
| 2026-04-29 09:59 | 55.49674 | -4.58436 | 38 ft | 20 kts | 202° |
| 2026-04-29 10:00 | 55.49549 | -4.58533 | 36 ft | 20 kts | 202° |
| 2026-04-29 10:00 | 55.49420 | -4.58633 | 34 ft | 16 kts | 203° |
| 2026-04-29 10:00 | 55.49407 | -4.58643 | 34 ft | 0 kts | 204° |
| 2026-04-29 10:01 | 55.49404 | -4.58645 | 34 ft | 4 kts | 203° |
| 2026-04-29 10:01 | 55.49306 | -4.58720 | 32 ft | 26 kts | 204° |
| 2026-04-29 10:01 | 55.49131 | -4.58855 | 30 ft | 27 kts | 203° |
| 2026-04-29 10:02 | 55.48955 | -4.58990 | 27 ft | 28 kts | 205° |
| 2026-04-29 10:02 | 55.48819 | -4.59005 | 25 ft | 12 kts | 147° |
| 2026-04-29 10:02 | 55.48793 | -4.58948 | 24 ft | 0 kts | 115° |
| 2026-04-29 10:10 | 55.48790 | -4.58935 | 24 ft | 6 kts | 107° |
| 2026-04-29 10:10 | 55.48796 | -4.58806 | 25 ft | 15 kts | 70° |
| 2026-04-29 10:10 | 55.48901 | -4.58693 | 26 ft | 26 kts | 22° |
| 2026-04-29 10:10 | 55.49220 | -4.58445 | 55 ft | 69 kts | 28° |
| 2026-04-29 10:11 | 55.49700 | -4.58112 | 261 ft | 75 kts | 27° |
| 2026-04-29 10:11 | 55.50176 | -4.57752 | 519 ft | 76 kts | 31° |
| 2026-04-29 10:11 | 55.50668 | -4.57359 | 754 ft | 79 kts | 32° |
| 2026-04-29 10:11 | 55.51159 | -4.56922 | 1006 ft | 77 kts | 23° |
| 2026-04-29 10:12 | 55.51734 | -4.56775 | 1167 ft | 88 kts | 9° |
| 2026-04-29 10:12 | 55.52356 | -4.56692 | 1331 ft | 92 kts | 11° |
| 2026-04-29 10:12 | 55.53002 | -4.56512 | 1558 ft | 91 kts | 16° |
| 2026-04-29 10:12 | 55.53622 | -4.56340 | 1777 ft | 92 kts | 13° |
| 2026-04-29 10:13 | 55.54284 | -4.56278 | 1964 ft | 97 kts | 11° |
| 2026-04-29 10:13 | 55.54956 | -4.56150 | 2098 ft | 94 kts | 18° |
| 2026-04-29 10:13 | 55.55602 | -4.55923 | 2265 ft | 90 kts | 20° |
| 2026-04-29 10:13 | 55.56220 | -4.55701 | 2424 ft | 90 kts | 19° |
| 2026-04-29 10:14 | 55.56846 | -4.55462 | 2499 ft | 92 kts | 25° |
| 2026-04-29 10:14 | 55.57439 | -4.55138 | 2729 ft | 86 kts | 26° |
| 2026-04-29 10:14 | 55.58013 | -4.54869 | 2880 ft | 85 kts | 24° |
| 2026-04-29 10:14 | 55.58591 | -4.54646 | 3026 ft | 83 kts | 22° |
| 2026-04-29 10:15 | 55.59156 | -4.54484 | 3218 ft | 80 kts | 15° |
| 2026-04-29 10:15 | 55.59747 | -4.54384 | 3274 ft | 94 kts | 13° |
| 2026-04-29 10:15 | 55.60367 | -4.54284 | 3536 ft | 86 kts | 15° |
| 2026-04-29 10:15 | 55.60941 | -4.54199 | 3685 ft | 82 kts | 14° |
| 2026-04-29 10:16 | 55.61532 | -4.54067 | 3814 ft | 90 kts | 16° |
| 2026-04-29 10:16 | 55.61937 | -4.54003 | 3924 ft | 87 kts | 18° |
| 2026-04-29 10:16 | 55.62748 | -4.53824 | 4035 ft | 89 kts | 19° |
| 2026-04-29 10:16 | 55.63394 | -4.53654 | 4061 ft | 100 kts | 18° |
| 2026-04-29 10:17 | 55.64120 | -4.53499 | 4113 ft | 111 kts | 16° |
| 2026-04-29 10:17 | 55.64865 | -4.53176 | 4088 ft | 111 kts | 27° |
| 2026-04-29 10:17 | 55.65633 | -4.52765 | 4079 ft | 116 kts | 20° |
| 2026-04-29 10:17 | 55.66430 | -4.52524 | 4079 ft | 116 kts | 16° |
| 2026-04-29 10:18 | 55.67214 | -4.52233 | 4097 ft | 112 kts | 27° |
| 2026-04-29 10:18 | 55.67954 | -4.51823 | 4086 ft | 114 kts | 22° |
| 2026-04-29 10:18 | 55.68749 | -4.51608 | 4168 ft | 115 kts | 11° |
| 2026-04-29 10:18 | 55.69560 | -4.51547 | 4164 ft | 121 kts | 8° |
| 2026-04-29 10:19 | 55.70375 | -4.51471 | 4221 ft | 115 kts | 12° |
| 2026-04-29 10:19 | 55.71190 | -4.51331 | 4247 ft | 117 kts | 14° |
| 2026-04-29 10:19 | 55.71998 | -4.51046 | 4159 ft | 120 kts | 25° |
| 2026-04-29 10:19 | 55.72777 | -4.50536 | 4097 ft | 119 kts | 32° |
| 2026-04-29 10:20 | 55.73552 | -4.50007 | 4078 ft | 120 kts | 23° |
| 2026-04-29 10:20 | 55.74390 | -4.49778 | 4003 ft | 125 kts | 10° |
| 2026-04-29 10:20 | 55.75201 | -4.49519 | 3924 ft | 117 kts | 22° |
| 2026-04-29 10:20 | 55.75957 | -4.49094 | 3932 ft | 109 kts | 25° |
| 2026-04-29 10:21 | 55.76663 | -4.48718 | 4014 ft | 104 kts | 21° |
| 2026-04-29 10:21 | 55.77381 | -4.48447 | 3984 ft | 107 kts | 19° |
| 2026-04-29 10:21 | 55.78097 | -4.48094 | 4037 ft | 105 kts | 24° |
| 2026-04-29 10:21 | 55.78769 | -4.47661 | 4077 ft | 105 kts | 31° |
| 2026-04-29 10:22 | 55.79419 | -4.47092 | 4189 ft | 99 kts | 36° |
| 2026-04-29 10:22 | 55.80093 | -4.46587 | 4135 ft | 112 kts | 25° |
| 2026-04-29 10:22 | 55.80860 | -4.46270 | 4121 ft | 114 kts | 17° |
| 2026-04-29 10:22 | 55.81636 | -4.45981 | 4121 ft | 113 kts | 24° |
| 2026-04-29 10:23 | 55.82413 | -4.45679 | 4074 ft | 115 kts | 18° |
| 2026-04-29 10:23 | 55.83190 | -4.45333 | 4017 ft | 117 kts | 17° |
| 2026-04-29 10:23 | 55.84003 | -4.45332 | 4026 ft | 117 kts | 1° |
| 2026-04-29 10:23 | 55.84809 | -4.45386 | 4030 ft | 114 kts | 7° |
| 2026-04-29 10:24 | 55.85588 | -4.45250 | 4043 ft | 112 kts | 15° |
| 2026-04-29 10:24 | 55.86355 | -4.45058 | 4039 ft | 112 kts | 16° |
| 2026-04-29 10:24 | 55.87105 | -4.44761 | 4045 ft | 108 kts | 23° |
| 2026-04-29 10:24 | 55.87804 | -4.44296 | 4021 ft | 108 kts | 34° |
| 2026-04-29 10:25 | 55.88488 | -4.43731 | 4040 ft | 106 kts | 35° |
| 2026-04-29 10:25 | 55.89152 | -4.43165 | 4025 ft | 107 kts | 32° |
| 2026-04-29 10:25 | 55.89855 | -4.42716 | 4035 ft | 108 kts | 26° |
| 2026-04-29 10:25 | 55.90577 | -4.42354 | 4038 ft | 108 kts | 20° |
| 2026-04-29 10:26 | 55.91322 | -4.42063 | 4036 ft | 111 kts | 17° |
| 2026-04-29 10:26 | 55.92081 | -4.41826 | 4064 ft | 109 kts | 17° |
| 2026-04-29 10:26 | 55.92800 | -4.41448 | 4046 ft | 107 kts | 39° |
| 2026-04-29 10:26 | 55.93246 | -4.40490 | 4083 ft | 97 kts | 76° |
| 2026-04-29 10:27 | 55.92554 | -4.38860 | 4062 ft | 99 kts | 168° |
| 2026-04-29 10:27 | 55.91857 | -4.38984 | 4061 ft | 103 kts | 184° |
| 2026-04-29 10:27 | 55.91153 | -4.39206 | 4062 ft | 104 kts | 186° |
| 2026-04-29 10:28 | 55.90449 | -4.39516 | 4074 ft | 104 kts | 188° |
| 2026-04-29 10:28 | 55.89766 | -4.39964 | 4077 ft | 107 kts | 201° |
| 2026-04-29 10:28 | 55.89168 | -4.40789 | 4060 ft | 111 kts | 217° |
| 2026-04-29 10:28 | 55.88608 | -4.41739 | 4079 ft | 111 kts | 218° |
| 2026-04-29 10:29 | 55.88050 | -4.42674 | 4059 ft | 111 kts | 218° |
| 2026-04-29 10:29 | 55.87509 | -4.43659 | 4041 ft | 112 kts | 219° |
| 2026-04-29 10:29 | 55.86994 | -4.44680 | 4082 ft | 112 kts | 227° |
| 2026-04-29 10:29 | 55.86791 | -4.46047 | 4056 ft | 120 kts | 271° |
| 2026-04-29 10:30 | 55.87125 | -4.47406 | 4060 ft | 123 kts | 315° |
| 2026-04-29 10:30 | 55.87859 | -4.48105 | 4046 ft | 117 kts | 355° |
| 2026-04-29 10:30 | 55.88594 | -4.47786 | 3983 ft | 109 kts | 40° |
| 2026-04-29 10:30 | 55.89179 | -4.47043 | 4101 ft | 100 kts | 50° |
| 2026-04-29 10:31 | 55.89594 | -4.46049 | 4096 ft | 98 kts | 65° |
| 2026-04-29 10:31 | 55.89948 | -4.45007 | 4045 ft | 99 kts | 64° |
| 2026-04-29 10:31 | 55.90313 | -4.43959 | 4037 ft | 99 kts | 63° |
| 2026-04-29 10:31 | 55.90662 | -4.42898 | 4003 ft | 100 kts | 69° |
| 2026-04-29 10:32 | 55.90845 | -4.41739 | 3990 ft | 96 kts | 95° |
| 2026-04-29 10:32 | 55.90522 | -4.40772 | 4006 ft | 94 kts | 144° |
| 2026-04-29 10:32 | 55.89861 | -4.40653 | 4016 ft | 102 kts | 186° |
| 2026-04-29 10:32 | 55.89177 | -4.41001 | 4007 ft | 105 kts | 193° |
| 2026-04-29 10:33 | 55.88559 | -4.41783 | 3985 ft | 111 kts | 211° |
| 2026-04-29 10:33 | 55.87991 | -4.42690 | 3992 ft | 109 kts | 218° |
| 2026-04-29 10:33 | 55.87478 | -4.43724 | 3956 ft | 113 kts | 223° |
| 2026-04-29 10:33 | 55.86974 | -4.44798 | 3977 ft | 114 kts | 230° |
| 2026-04-29 10:34 | 55.86827 | -4.46188 | 3974 ft | 120 kts | 274° |
| 2026-04-29 10:34 | 55.87155 | -4.47550 | 3996 ft | 121 kts | 313° |
| 2026-04-29 10:34 | 55.87890 | -4.48166 | 3966 ft | 116 kts | 1° |
| 2026-04-29 10:34 | 55.88600 | -4.47761 | 3955 ft | 105 kts | 46° |
| 2026-04-29 10:35 | 55.89008 | -4.46730 | 3984 ft | 102 kts | 65° |
| 2026-04-29 10:35 | 55.89351 | -4.45666 | 3995 ft | 97 kts | 69° |
| 2026-04-29 10:35 | 55.89700 | -4.44582 | 3947 ft | 101 kts | 67° |
| 2026-04-29 10:35 | 55.89965 | -4.43454 | 3930 ft | 102 kts | 70° |
| 2026-04-29 10:36 | 55.90262 | -4.42323 | 3949 ft | 97 kts | 73° |
| 2026-04-29 10:36 | 55.90227 | -4.41187 | 3935 ft | 94 kts | 114° |
| 2026-04-29 10:36 | 55.89740 | -4.40379 | 3919 ft | 97 kts | 154° |
| 2026-04-29 10:36 | 55.89094 | -4.40591 | 3957 ft | 106 kts | 210° |
| 2026-04-29 10:37 | 55.88609 | -4.41647 | 3953 ft | 111 kts | 223° |
| 2026-04-29 10:37 | 55.88079 | -4.42621 | 3967 ft | 107 kts | 218° |
| 2026-04-29 10:37 | 55.87578 | -4.43600 | 4003 ft | 108 kts | 223° |
| 2026-04-29 10:37 | 55.87103 | -4.44634 | 4033 ft | 108 kts | 221° |
| 2026-04-29 10:38 | 55.86499 | -4.45419 | 3998 ft | 107 kts | 204° |
| 2026-04-29 10:38 | 55.85901 | -4.46144 | 4065 ft | 103 kts | 210° |
| 2026-04-29 10:38 | 55.85353 | -4.46972 | 4057 ft | 108 kts | 216° |
| 2026-04-29 10:38 | 55.84793 | -4.47838 | 4139 ft | 104 kts | 211° |
| 2026-04-29 10:39 | 55.84233 | -4.48682 | 4178 ft | 107 kts | 215° |
| 2026-04-29 10:39 | 55.83674 | -4.49543 | 4200 ft | 105 kts | 211° |
| 2026-04-29 10:39 | 55.83070 | -4.50364 | 4147 ft | 113 kts | 208° |
| 2026-04-29 10:39 | 55.82457 | -4.51156 | 4143 ft | 104 kts | 207° |
| 2026-04-29 10:40 | 55.81858 | -4.51893 | 3935 ft | 106 kts | 206° |
| 2026-04-29 10:40 | 55.81255 | -4.52584 | 3801 ft | 104 kts | 205° |
| 2026-04-29 10:40 | 55.80659 | -4.53348 | 3701 ft | 102 kts | 216° |
| 2026-04-29 10:40 | 55.80115 | -4.54245 | 3375 ft | 107 kts | 211° |
| 2026-04-29 10:41 | 55.79553 | -4.55056 | 3309 ft | 100 kts | 211° |
| 2026-04-29 10:41 | 55.78964 | -4.55769 | 3048 ft | 104 kts | 203° |
| 2026-04-29 10:41 | 55.78359 | -4.56469 | 2896 ft | 103 kts | 205° |
| 2026-04-29 10:41 | 55.77777 | -4.57174 | 2746 ft | 103 kts | 206° |
| 2026-04-29 10:42 | 55.77175 | -4.57821 | 2612 ft | 99 kts | 203° |
| 2026-04-29 10:42 | 55.76769 | -4.58249 | 2485 ft | 103 kts | 203° |
| 2026-04-29 10:42 | 55.76150 | -4.58891 | 2367 ft | 101 kts | 205° |
| 2026-04-29 10:42 | 55.75559 | -4.59541 | 2304 ft | 103 kts | 208° |
| 2026-04-29 10:43 | 55.75007 | -4.60389 | 2373 ft | 103 kts | 216° |
| 2026-04-29 10:43 | 55.74462 | -4.61249 | 2352 ft | 105 kts | 211° |
| 2026-04-29 10:43 | 55.73887 | -4.61991 | 2373 ft | 100 kts | 208° |
| 2026-04-29 10:43 | 55.73304 | -4.62712 | 2367 ft | 102 kts | 213° |
| 2026-04-29 10:44 | 55.72787 | -4.63586 | 2300 ft | 104 kts | 214° |
| 2026-04-29 10:44 | 55.72317 | -4.64493 | 2298 ft | 103 kts | 233° |
| 2026-04-29 10:44 | 55.72173 | -4.65767 | 2349 ft | 104 kts | 264° |
| 2026-04-29 10:44 | 55.72334 | -4.67048 | 2363 ft | 113 kts | 300° |
| 2026-04-29 10:45 | 55.72815 | -4.68050 | 2415 ft | 105 kts | 324° |
| 2026-04-29 10:45 | 55.73477 | -4.68368 | 2330 ft | 99 kts | 16° |
| 2026-04-29 10:45 | 55.74001 | -4.67846 | 2360 ft | 84 kts | 49° |
| 2026-04-29 10:45 | 55.74463 | -4.67179 | 2424 ft | 88 kts | 40° |
| 2026-04-29 10:46 | 55.74937 | -4.66489 | 2456 ft | 86 kts | 49° |
| 2026-04-29 10:46 | 55.75337 | -4.65734 | 2448 ft | 85 kts | 60° |
| 2026-04-29 10:46 | 55.75698 | -4.64864 | 2504 ft | 83 kts | 63° |
| 2026-04-29 10:46 | 55.76073 | -4.64059 | 2518 ft | 90 kts | 50° |
| 2026-04-29 10:47 | 55.76537 | -4.63375 | 2437 ft | 88 kts | 44° |
| 2026-04-29 10:47 | 55.76985 | -4.62653 | 2280 ft | 89 kts | 50° |
| 2026-04-29 10:47 | 55.77396 | -4.61882 | 2317 ft | 83 kts | 52° |
| 2026-04-29 10:47 | 55.77741 | -4.61134 | 2309 ft | 76 kts | 60° |
| 2026-04-29 10:48 | 55.78077 | -4.60413 | 2321 ft | 77 kts | 56° |
| 2026-04-29 10:48 | 55.78444 | -4.59734 | 2317 ft | 80 kts | 50° |
| 2026-04-29 10:48 | 55.78885 | -4.59075 | 2251 ft | 84 kts | 50° |
| 2026-04-29 10:48 | 55.79301 | -4.58320 | 2172 ft | 86 kts | 59° |
| 2026-04-29 10:49 | 55.79698 | -4.57478 | 2127 ft | 92 kts | 58° |
| 2026-04-29 10:49 | 55.80056 | -4.56581 | 2071 ft | 87 kts | 62° |
| 2026-04-29 10:49 | 55.80477 | -4.55727 | 1757 ft | 92 kts | 45° |
| 2026-04-29 10:49 | 55.80932 | -4.54978 | 1589 ft | 88 kts | 52° |
| 2026-04-29 10:50 | 55.81323 | -4.54198 | 1477 ft | 82 kts | 55° |
| 2026-04-29 10:50 | 55.81704 | -4.53410 | 1364 ft | 87 kts | 53° |
| 2026-04-29 10:50 | 55.82147 | -4.52681 | 1257 ft | 86 kts | 43° |
| 2026-04-29 10:50 | 55.82545 | -4.51901 | 1107 ft | 86 kts | 54° |
| 2026-04-29 10:51 | 55.82932 | -4.51106 | 968 ft | 83 kts | 49° |
| 2026-04-29 10:51 | 55.83324 | -4.50371 | 853 ft | 83 kts | 47° |
| 2026-04-29 10:51 | 55.83731 | -4.49660 | 836 ft | 79 kts | 47° |
| 2026-04-29 10:51 | 55.84087 | -4.48899 | 741 ft | 81 kts | 52° |
| 2026-04-29 10:52 | 55.84496 | -4.48187 | 666 ft | 84 kts | 44° |
| 2026-04-29 10:52 | 55.84908 | -4.47487 | 486 ft | 81 kts | 46° |
| 2026-04-29 10:52 | 55.85329 | -4.46761 | 329 ft | 85 kts | 36° |
| 2026-04-29 10:52 | 55.85780 | -4.46130 | 473 ft | 80 kts | 46° |
| 2026-04-29 10:53 | 55.86161 | -4.45458 | 723 ft | 72 kts | 45° |
| 2026-04-29 10:53 | 55.86517 | -4.44828 | 970 ft | 73 kts | 49° |
| 2026-04-29 10:53 | 55.86880 | -4.44148 | 1163 ft | 82 kts | 50° |
| 2026-04-29 10:53 | 55.87272 | -4.43457 | 1481 ft | 77 kts | 50° |
| 2026-04-29 10:54 | 55.87656 | -4.42727 | 1688 ft | 82 kts | 54° |
| 2026-04-29 10:54 | 55.88051 | -4.41999 | 1970 ft | 82 kts | 50° |
| 2026-04-29 10:54 | 55.88479 | -4.41335 | 2204 ft | 85 kts | 48° |
| 2026-04-29 10:54 | 55.88910 | -4.40605 | 2479 ft | 83 kts | 52° |
| 2026-04-29 10:55 | 55.89348 | -4.39880 | 2647 ft | 86 kts | 51° |
| 2026-04-29 10:55 | 55.89748 | -4.39110 | 2904 ft | 87 kts | 57° |
| 2026-04-29 10:55 | 55.90170 | -4.38278 | 3063 ft | 90 kts | 56° |
| 2026-04-29 10:55 | 55.90332 | -4.37228 | 3074 ft | 90 kts | 101° |
| 2026-04-29 10:56 | 55.89993 | -4.36309 | 3091 ft | 93 kts | 143° |
| 2026-04-29 10:56 | 55.89344 | -4.36153 | 3126 ft | 98 kts | 187° |
| 2026-04-29 10:56 | 55.88750 | -4.36833 | 3155 ft | 108 kts | 222° |
| 2026-04-29 10:56 | 55.88427 | -4.38046 | 3195 ft | 113 kts | 249° |
| 2026-04-29 10:57 | 55.88353 | -4.39416 | 3285 ft | 110 kts | 268° |
| 2026-04-29 10:57 | 55.88394 | -4.40819 | 3248 ft | 117 kts | 272° |
| 2026-04-29 10:57 | 55.88201 | -4.42117 | 3270 ft | 108 kts | 225° |
| 2026-04-29 10:57 | 55.87593 | -4.42855 | 3227 ft | 107 kts | 196° |
| 2026-04-29 10:58 | 55.86880 | -4.43277 | 3153 ft | 111 kts | 192° |
| 2026-04-29 10:58 | 55.86144 | -4.43741 | 3059 ft | 115 kts | 196° |
| 2026-04-29 10:58 | 55.85428 | -4.44194 | 3073 ft | 105 kts | 189° |
| 2026-04-29 10:58 | 55.84697 | -4.44424 | 3051 ft | 108 kts | 182° |
| 2026-04-29 10:59 | 55.84006 | -4.44708 | 3106 ft | 105 kts | 194° |
| 2026-04-29 10:59 | 55.83420 | -4.45580 | 3070 ft | 117 kts | 229° |
| 2026-04-29 10:59 | 55.82961 | -4.46772 | 3071 ft | 117 kts | 231° |
| 2026-04-29 10:59 | 55.82500 | -4.47950 | 3074 ft | 115 kts | 228° |
| 2026-04-29 11:00 | 55.82024 | -4.49089 | 3071 ft | 116 kts | 227° |
| 2026-04-29 11:00 | 55.81554 | -4.50256 | 3045 ft | 116 kts | 227° |
| 2026-04-29 11:00 | 55.81056 | -4.51352 | 2909 ft | 108 kts | 221° |
| 2026-04-29 11:00 | 55.80573 | -4.52434 | 2554 ft | 115 kts | 226° |
| 2026-04-29 11:01 | 55.80105 | -4.53595 | 2538 ft | 118 kts | 221° |
| 2026-04-29 11:01 | 55.79593 | -4.54746 | 2553 ft | 116 kts | 227° |
| 2026-04-29 11:01 | 55.79136 | -4.55889 | 2519 ft | 113 kts | 230° |
| 2026-04-29 11:01 | 55.78610 | -4.56946 | 2499 ft | 115 kts | 214° |
| 2026-04-29 11:02 | 55.77971 | -4.57733 | 2514 ft | 109 kts | 208° |
| 2026-04-29 11:02 | 55.77348 | -4.58537 | 2553 ft | 109 kts | 211° |
| 2026-04-29 11:02 | 55.76750 | -4.59385 | 2508 ft | 109 kts | 208° |
| 2026-04-29 11:02 | 55.76112 | -4.60114 | 2529 ft | 109 kts | 206° |
| 2026-04-29 11:03 | 55.75488 | -4.60889 | 2562 ft | 112 kts | 208° |
| 2026-04-29 11:03 | 55.74843 | -4.61670 | 2584 ft | 112 kts | 205° |
| 2026-04-29 11:03 | 55.74198 | -4.62375 | 2595 ft | 113 kts | 212° |
| 2026-04-29 11:03 | 55.73742 | -4.63610 | 2495 ft | 125 kts | 250° |
| 2026-04-29 11:04 | 55.73810 | -4.65135 | 2541 ft | 127 kts | 292° |
| 2026-04-29 11:04 | 55.74413 | -4.66247 | 2548 ft | 126 kts | 337° |
| 2026-04-29 11:04 | 55.75223 | -4.66508 | 2532 ft | 114 kts | 13° |
| 2026-04-29 11:04 | 55.75849 | -4.65836 | 2488 ft | 102 kts | 62° |
| 2026-04-29 11:05 | 55.76115 | -4.64704 | 2476 ft | 98 kts | 75° |
| 2026-04-29 11:05 | 55.76433 | -4.63615 | 2480 ft | 99 kts | 65° |
| 2026-04-29 11:05 | 55.76872 | -4.62678 | 2473 ft | 99 kts | 54° |
| 2026-04-29 11:05 | 55.77350 | -4.61824 | 2598 ft | 95 kts | 51° |
| 2026-04-29 11:06 | 55.77850 | -4.61027 | 2467 ft | 96 kts | 48° |
| 2026-04-29 11:06 | 55.78298 | -4.60192 | 2314 ft | 93 kts | 51° |
| 2026-04-29 11:06 | 55.78729 | -4.59368 | 2200 ft | 89 kts | 53° |
| 2026-04-29 11:06 | 55.79156 | -4.58596 | 2113 ft | 87 kts | 50° |
| 2026-04-29 11:07 | 55.79570 | -4.57817 | 2012 ft | 88 kts | 54° |
| 2026-04-29 11:07 | 55.79956 | -4.56982 | 1997 ft | 88 kts | 57° |
| 2026-04-29 11:07 | 55.80330 | -4.56157 | 1913 ft | 86 kts | 59° |
| 2026-04-29 11:07 | 55.80723 | -4.55344 | 1695 ft | 91 kts | 51° |
| 2026-04-29 11:08 | 55.81145 | -4.54547 | 1572 ft | 83 kts | 51° |
| 2026-04-29 11:08 | 55.81554 | -4.53769 | 1408 ft | 87 kts | 50° |
| 2026-04-29 11:08 | 55.81972 | -4.53034 | 1344 ft | 85 kts | 47° |
| 2026-04-29 11:08 | 55.82406 | -4.52264 | 1187 ft | 87 kts | 50° |
| 2026-04-29 11:09 | 55.82811 | -4.51499 | 1071 ft | 85 kts | 48° |
| 2026-04-29 11:09 | 55.83207 | -4.50745 | 920 ft | 84 kts | 49° |
| 2026-04-29 11:09 | 55.83631 | -4.50022 | 839 ft | 84 kts | 45° |
| 2026-04-29 11:09 | 55.84033 | -4.49280 | 731 ft | 83 kts | 50° |
| 2026-04-29 11:10 | 55.84436 | -4.48546 | 646 ft | 80 kts | 46° |
| 2026-04-29 11:10 | 55.84856 | -4.47810 | 505 ft | 82 kts | 50° |
| 2026-04-29 11:10 | 55.85225 | -4.47012 | 388 ft | 85 kts | 51° |
| 2026-04-29 11:10 | 55.85629 | -4.46203 | 282 ft | 88 kts | 48° |
| 2026-04-29 11:11 | 55.86036 | -4.45470 | 553 ft | 79 kts | 52° |
| 2026-04-29 11:11 | 55.86405 | -4.44785 | 831 ft | 73 kts | 50° |
| 2026-04-29 11:11 | 55.86774 | -4.44143 | 1093 ft | 75 kts | 48° |
| 2026-04-29 11:11 | 55.87158 | -4.43514 | 1387 ft | 74 kts | 47° |
| 2026-04-29 11:12 | 55.87559 | -4.42921 | 1616 ft | 79 kts | 45° |
| 2026-04-29 11:12 | 55.87989 | -4.42303 | 1908 ft | 77 kts | 48° |
| 2026-04-29 11:12 | 55.88429 | -4.41722 | 2123 ft | 82 kts | 44° |
| 2026-04-29 11:12 | 55.88891 | -4.41145 | 2423 ft | 81 kts | 43° |
| 2026-04-29 11:13 | 55.89371 | -4.40637 | 2687 ft | 82 kts | 37° |
| 2026-04-29 11:13 | 55.89889 | -4.40127 | 2939 ft | 85 kts | 36° |
| 2026-04-29 11:13 | 55.90404 | -4.39476 | 3033 ft | 97 kts | 58° |
| 2026-04-29 11:13 | 55.90559 | -4.38400 | 3219 ft | 93 kts | 97° |
| 2026-04-29 11:14 | 55.90257 | -4.37325 | 3107 ft | 102 kts | 136° |
| 2026-04-29 11:14 | 55.89603 | -4.36956 | 3122 ft | 105 kts | 179° |
| 2026-04-29 11:14 | 55.88926 | -4.37544 | 3087 ft | 116 kts | 218° |
| 2026-04-29 11:14 | 55.88531 | -4.38805 | 3094 ft | 120 kts | 249° |
| 2026-04-29 11:15 | 55.88467 | -4.40334 | 2920 ft | 128 kts | 257° |
| 2026-04-29 11:15 | 55.88061 | -4.41602 | 2966 ft | 110 kts | 217° |
| 2026-04-29 11:15 | 55.87443 | -4.42450 | 2915 ft | 114 kts | 210° |
| 2026-04-29 11:15 | 55.86805 | -4.43191 | 2994 ft | 109 kts | 205° |
| 2026-04-29 11:16 | 55.86161 | -4.43929 | 2983 ft | 111 kts | 211° |
| 2026-04-29 11:16 | 55.85544 | -4.44739 | 2980 ft | 109 kts | 210° |
| 2026-04-29 11:16 | 55.84961 | -4.45589 | 2981 ft | 108 kts | 214° |
| 2026-04-29 11:16 | 55.84377 | -4.46424 | 3032 ft | 106 kts | 208° |
| 2026-04-29 11:17 | 55.83764 | -4.47193 | 3081 ft | 108 kts | 210° |
| 2026-04-29 11:17 | 55.83175 | -4.48020 | 3073 ft | 109 kts | 211° |
| 2026-04-29 11:17 | 55.82606 | -4.48963 | 3126 ft | 110 kts | 218° |
| 2026-04-29 11:17 | 55.82056 | -4.49894 | 3141 ft | 112 kts | 218° |
| 2026-04-29 11:18 | 55.81500 | -4.50887 | 3147 ft | 113 kts | 217° |
| 2026-04-29 11:18 | 55.80912 | -4.51792 | 3122 ft | 109 kts | 212° |
| 2026-04-29 11:18 | 55.80310 | -4.52590 | 3059 ft | 110 kts | 210° |
| 2026-04-29 11:18 | 55.79707 | -4.53430 | 3046 ft | 110 kts | 210° |
| 2026-04-29 11:19 | 55.79097 | -4.54225 | 3032 ft | 108 kts | 207° |
| 2026-04-29 11:19 | 55.78434 | -4.54873 | 3039 ft | 108 kts | 197° |
| 2026-04-29 11:19 | 55.77735 | -4.55348 | 3120 ft | 109 kts | 194° |
| 2026-04-29 11:19 | 55.77049 | -4.55886 | 3143 ft | 111 kts | 197° |
| 2026-04-29 11:20 | 55.76333 | -4.56432 | 3225 ft | 108 kts | 192° |
| 2026-04-29 11:20 | 55.75586 | -4.56858 | 3093 ft | 117 kts | 191° |
| 2026-04-29 11:20 | 55.74806 | -4.57309 | 3095 ft | 113 kts | 193° |
| 2026-04-29 11:20 | 55.74066 | -4.57779 | 3004 ft | 114 kts | 190° |
| 2026-04-29 11:21 | 55.73316 | -4.58173 | 2997 ft | 113 kts | 189° |
| 2026-04-29 11:21 | 55.72632 | -4.58901 | 2987 ft | 115 kts | 213° |
| 2026-04-29 11:21 | 55.72043 | -4.59794 | 2993 ft | 109 kts | 213° |
| 2026-04-29 11:21 | 55.71450 | -4.60611 | 2977 ft | 106 kts | 203° |
| 2026-04-29 11:22 | 55.70801 | -4.61255 | 2977 ft | 107 kts | 204° |
| 2026-04-29 11:22 | 55.70154 | -4.61954 | 2991 ft | 109 kts | 205° |
| 2026-04-29 11:22 | 55.69538 | -4.62749 | 2978 ft | 112 kts | 214° |
| 2026-04-29 11:22 | 55.68962 | -4.63665 | 2970 ft | 110 kts | 211° |
| 2026-04-29 11:23 | 55.68348 | -4.64410 | 2972 ft | 106 kts | 204° |
| 2026-04-29 11:23 | 55.67671 | -4.64948 | 2914 ft | 109 kts | 184° |
| 2026-04-29 11:23 | 55.66978 | -4.65252 | 3003 ft | 102 kts | 198° |
| 2026-04-29 11:23 | 55.66470 | -4.66278 | 2849 ft | 123 kts | 240° |
| 2026-04-29 11:24 | 55.66432 | -4.67827 | 2801 ft | 129 kts | 285° |
| 2026-04-29 11:24 | 55.67014 | -4.69026 | 2728 ft | 130 kts | 338° |
| 2026-04-29 11:24 | 55.67839 | -4.69182 | 2597 ft | 117 kts | 13° |
| 2026-04-29 11:24 | 55.68652 | -4.68856 | 2460 ft | 119 kts | 19° |
| 2026-04-29 11:25 | 55.69399 | -4.68503 | 2414 ft | 108 kts | 25° |
| 2026-04-29 11:25 | 55.70094 | -4.68175 | 2386 ft | 100 kts | 23° |
| 2026-04-29 11:25 | 55.70536 | -4.67943 | 2360 ft | 96 kts | 24° |
| 2026-04-29 11:25 | 55.71422 | -4.67529 | 2392 ft | 98 kts | 21° |
| 2026-04-29 11:26 | 55.72509 | -4.67094 | 2458 ft | 95 kts | 30° |
| 2026-04-29 11:26 | 55.73142 | -4.66656 | 2468 ft | 97 kts | 30° |
| 2026-04-29 11:26 | 55.73771 | -4.66192 | 2484 ft | 98 kts | 32° |
| 2026-04-29 11:27 | 55.74389 | -4.65671 | 2532 ft | 102 kts | 36° |
| 2026-04-29 11:27 | 55.75034 | -4.64965 | 2317 ft | 116 kts | 42° |
| 2026-04-29 11:27 | 55.75732 | -4.64324 | 2338 ft | 113 kts | 21° |
| 2026-04-29 11:27 | 55.76468 | -4.63904 | 2356 ft | 108 kts | 34° |
| 2026-04-29 11:28 | 55.77040 | -4.63159 | 2430 ft | 99 kts | 48° |
| 2026-04-29 11:28 | 55.77581 | -4.62342 | 2461 ft | 105 kts | 46° |
| 2026-04-29 11:28 | 55.78114 | -4.61504 | 2485 ft | 102 kts | 52° |
| 2026-04-29 11:28 | 55.78637 | -4.60605 | 2449 ft | 109 kts | 46° |
| 2026-04-29 11:29 | 55.79203 | -4.59715 | 2515 ft | 104 kts | 55° |
| 2026-04-29 11:29 | 55.79719 | -4.58805 | 2508 ft | 107 kts | 50° |
| 2026-04-29 11:29 | 55.80223 | -4.57863 | 2461 ft | 101 kts | 57° |
| 2026-04-29 11:29 | 55.80685 | -4.56959 | 2330 ft | 95 kts | 55° |
| 2026-04-29 11:30 | 55.81183 | -4.56202 | 2170 ft | 92 kts | 45° |
| 2026-04-29 11:30 | 55.81672 | -4.55500 | 2007 ft | 92 kts | 44° |
| 2026-04-29 11:30 | 55.82128 | -4.54755 | 1867 ft | 91 kts | 54° |
| 2026-04-29 11:30 | 55.82554 | -4.53869 | 1694 ft | 95 kts | 52° |
| 2026-04-29 11:31 | 55.83044 | -4.53099 | 1490 ft | 94 kts | 44° |
| 2026-04-29 11:31 | 55.83579 | -4.52432 | 1287 ft | 91 kts | 43° |
| 2026-04-29 11:31 | 55.84032 | -4.51677 | 1099 ft | 91 kts | 52° |
| 2026-04-29 11:31 | 55.84411 | -4.50789 | 916 ft | 92 kts | 57° |
| 2026-04-29 11:32 | 55.84813 | -4.49939 | 802 ft | 91 kts | 54° |
| 2026-04-29 11:32 | 55.85159 | -4.49011 | 635 ft | 93 kts | 63° |
| 2026-04-29 11:32 | 55.85487 | -4.48069 | 592 ft | 88 kts | 69° |
| 2026-04-29 11:32 | 55.85690 | -4.47154 | 499 ft | 71 kts | 75° |
| 2026-04-29 11:33 | 55.85849 | -4.46425 | 294 ft | 60 kts | 75° |
| 2026-04-29 11:33 | 55.86014 | -4.45679 | 148 ft | 64 kts | 74° |
| 2026-04-29 11:33 | 55.86294 | -4.45017 | 82 ft | 67 kts | 54° |
| 2026-04-29 11:33 | 55.86586 | -4.44454 | 30 ft | 51 kts | 50° |
| 2026-04-29 11:34 | 55.86786 | -4.44077 | 24 ft | 35 kts | 46° |
| 2026-04-29 11:34 | 55.86946 | -4.43784 | 25 ft | 31 kts | 46° |
| 2026-04-29 11:34 | 55.87101 | -4.43498 | 27 ft | 34 kts | 46° |
| 2026-04-29 11:34 | 55.87205 | -4.43388 | 26 ft | 14 kts | 291° |
| 2026-04-29 11:35 | 55.87209 | -4.43654 | 28 ft | 26 kts | 271° |
| 2026-04-29 11:35 | 55.87209 | -4.43706 | 28 ft | 0 kts | 271° |